createdAt,value
2019-04-28T00:03:25.153Z,100055.14
2019-04-28T00:08:26.797Z,100046.91
2019-04-28T00:13:28.327Z,100042.45
2019-04-28T00:18:31.677Z,100041.58
2019-04-28T00:23:46.108Z,100044.37
2019-04-28T00:28:47.764Z,100053.54
2019-04-28T00:33:51.389Z,100055.78
2019-04-28T00:38:52.829Z,100065.65
2019-04-28T00:43:54.379Z,100068.25
2019-04-28T00:48:56.041Z,100072.97
2019-04-28T00:53:57.694Z,100076.41
2019-04-28T00:58:59.359Z,100078.03
2019-04-28T01:04:02.106Z,100074.39
2019-04-28T01:09:06.421Z,100078.30
2019-04-28T01:14:07.980Z,100083.83
2019-04-28T01:19:17.844Z,100078.67
2019-04-28T01:24:20.115Z,100078.78
2019-04-28T01:29:21.762Z,100076.48
2019-04-28T01:34:24.265Z,100081.88
2019-04-28T01:39:25.864Z,100087.63
2019-04-28T01:44:27.424Z,100097.96
2019-04-28T01:49:29.499Z,100100.25
2019-04-28T01:54:31.187Z,100099.38
2019-04-28T01:59:32.749Z,100106.27
2019-04-28T02:04:34.332Z,100104.41
2019-04-28T02:09:35.980Z,100103.62
2019-04-28T02:14:37.566Z,100109.00
2019-04-28T02:19:41.083Z,100107.05
2019-04-28T02:24:42.747Z,100109.73
2019-04-28T02:29:44.323Z,100110.98
2019-04-28T02:34:45.894Z,100110.98
2019-04-28T02:39:47.496Z,100108.69
2019-04-28T02:44:50.411Z,100113.14
2019-04-28T02:50:01.121Z,100106.30
2019-04-28T02:55:03.832Z,100105.58
2019-04-28T03:00:05.697Z,100110.16
2019-04-28T03:05:07.376Z,100116.33
2019-04-28T03:10:10.971Z,100111.44
2019-04-28T03:15:12.755Z,100109.70
2019-04-28T03:20:14.527Z,100109.41
2019-04-28T03:25:30.248Z,100106.39
2019-04-28T03:31:06.541Z,100108.84
2019-04-28T03:36:08.582Z,100116.20
2019-04-28T03:41:10.916Z,100118.66
2019-04-28T03:46:20.276Z,100131.48
2019-04-28T03:51:21.431Z,100137.19
2019-04-28T03:56:23.002Z,100149.84
2019-04-28T04:01:24.721Z,100155.21
2019-04-28T04:06:26.312Z,100162.90
2019-04-28T04:11:41.033Z,100169.95
2019-04-28T04:16:57.103Z,100168.64
2019-04-28T04:22:00.362Z,100148.64
2019-04-28T04:27:02.166Z,100149.78
2019-04-28T04:32:15.832Z,100159.36
2019-04-28T04:37:07.224Z,100170.87
2019-04-28T04:42:10.504Z,100175.95
2019-04-28T04:47:12.228Z,100174.98
2019-04-28T04:52:13.810Z,100179.88
2019-04-28T04:57:15.400Z,100188.44
2019-04-28T05:02:30.644Z,100195.52
2019-04-28T05:07:30.741Z,100204.70
2019-04-28T05:12:32.314Z,100208.17
2019-04-28T05:17:33.932Z,100210.80
2019-04-28T05:22:42.635Z,100205.38
2019-04-28T05:27:43.996Z,100212.23
2019-04-28T05:32:53.682Z,100226.02
2019-04-28T05:37:49.460Z,100227.05
2019-04-28T05:43:00.989Z,100244.23
2019-04-28T05:48:02.946Z,100247.56
2019-04-28T05:53:10.636Z,100247.41
2019-04-28T05:58:23.466Z,100253.52
2019-04-28T06:03:25.575Z,100249.22
2019-04-28T06:08:33.988Z,100241.19
2019-04-28T06:13:35.566Z,100242.89
2019-04-28T06:18:37.165Z,100244.15
2019-04-28T06:23:38.758Z,100239.72
2019-04-28T06:28:40.444Z,100251.91
2019-04-28T06:33:44.428Z,100243.70
2019-04-28T06:38:45.602Z,100261.44
2019-04-28T06:43:47.173Z,100262.41
2019-04-28T06:48:48.782Z,100286.41
2019-04-28T06:53:50.375Z,100290.26
2019-04-28T06:58:58.758Z,100290.16
2019-04-28T07:03:55.474Z,100300.89
2019-04-28T07:08:57.049Z,100313.95
2019-04-28T07:13:58.734Z,100322.03
2019-04-28T07:19:00.314Z,100319.19
2019-04-28T07:24:01.983Z,100326.28
2019-04-28T07:29:03.639Z,100332.31
2019-04-28T07:34:05.223Z,100335.27
2019-04-28T07:39:06.911Z,100339.70
2019-04-28T07:44:08.498Z,100336.73
2019-04-28T07:49:10.063Z,100339.77
2019-04-28T07:54:13.556Z,100349.19
2019-04-28T07:59:15.127Z,100361.00
2019-04-28T08:04:16.739Z,100365.41
2019-04-28T08:09:18.836Z,100368.53
2019-04-28T08:14:20.425Z,100375.72
2019-04-28T08:19:22.114Z,100388.22
2019-04-28T08:24:23.757Z,100400.55
2019-04-28T08:29:25.342Z,100404.89
2019-04-28T08:34:26.942Z,100412.86
2019-04-28T08:39:30.308Z,100407.00
2019-04-28T08:44:31.869Z,100411.62
2019-04-28T08:49:33.476Z,100422.31
2019-04-28T08:54:35.062Z,100420.14
2019-04-28T08:59:36.744Z,100418.72
2019-04-28T09:04:38.416Z,100423.87
2019-04-28T09:09:40.080Z,100434.72
2019-04-28T09:14:41.691Z,100437.97
2019-04-28T09:19:43.202Z,100435.34
2019-04-28T09:24:44.786Z,100438.05
2019-04-28T09:29:46.344Z,100437.97
2019-04-28T09:34:47.886Z,100442.83
2019-04-28T09:40:03.475Z,100438.27
2019-04-28T09:45:27.673Z,100433.45
2019-04-28T09:50:29.228Z,100433.39
2019-04-28T10:00:43.065Z,100420.66
2019-04-28T10:05:46.171Z,100424.26
2019-04-28T10:10:47.692Z,100424.84
2019-04-28T10:15:49.382Z,100423.09
2019-04-28T10:20:50.981Z,100420.56
2019-04-28T10:25:52.547Z,100421.97
2019-04-28T10:30:54.225Z,100420.02
2019-04-28T10:35:55.890Z,100424.05
2019-04-28T10:41:10.999Z,100419.72
2019-04-28T10:46:12.559Z,100424.52
2019-04-28T10:51:15.093Z,100436.73
2019-04-28T10:56:16.662Z,100431.27
2019-04-28T11:01:18.219Z,100439.95
2019-04-28T11:06:20.481Z,100442.37
2019-04-28T11:11:26.564Z,100433.97
2019-04-28T11:16:34.423Z,100433.47
2019-04-28T11:21:36.166Z,100437.33
2019-04-28T11:26:37.827Z,100428.34
2019-04-28T11:31:39.387Z,100438.77
2019-04-28T11:36:41.054Z,100437.12
2019-04-28T11:41:42.663Z,100433.52
2019-04-28T11:46:44.297Z,100435.71
2019-04-28T11:51:45.839Z,100437.03
2019-04-28T11:56:47.529Z,100436.99
2019-04-28T12:01:49.190Z,100428.14
2019-04-28T12:06:50.785Z,100428.43
2019-04-28T12:11:53.029Z,100437.70
2019-04-28T12:17:14.497Z,100431.30
2019-04-28T12:22:16.506Z,100437.06
2019-04-28T12:27:18.416Z,100432.75
2019-04-28T12:32:20.037Z,100434.05
2019-04-28T12:37:21.574Z,100439.20
2019-04-28T12:42:23.261Z,100434.13
2019-04-28T12:47:26.970Z,100438.72
2019-04-28T12:52:28.598Z,100429.87
2019-04-28T12:57:30.149Z,100427.27
2019-04-28T13:02:51.391Z,100422.41
2019-04-28T13:07:52.950Z,100421.86
2019-04-28T13:12:54.507Z,100421.20
2019-04-28T13:17:56.216Z,100421.14
2019-04-28T13:22:57.800Z,100416.74
2019-04-28T13:27:59.410Z,100411.22
2019-04-28T13:33:01.010Z,100404.41
2019-04-28T13:38:02.840Z,100407.34
2019-04-28T13:43:04.534Z,100399.51
2019-04-28T13:53:29.690Z,100397.58
2019-04-28T13:58:56.763Z,100392.23
2019-04-28T14:04:20.994Z,100388.31
2019-04-28T14:09:22.564Z,100388.83
2019-04-28T14:14:24.125Z,100389.67
2019-04-28T14:19:25.694Z,100391.00
2019-04-28T14:24:27.302Z,100396.05
2019-04-28T14:29:28.866Z,100393.86
2019-04-28T14:34:30.417Z,100400.52
2019-04-28T14:39:32.036Z,100400.05
2019-04-28T14:44:33.690Z,100403.58
2019-04-28T14:49:35.748Z,100402.58
2019-04-28T14:54:37.496Z,100408.02
2019-04-28T14:59:39.089Z,100406.20
2019-04-28T15:05:03.947Z,100403.41
2019-04-28T15:10:12.690Z,100403.59
2019-04-28T15:15:14.365Z,100404.09
2019-04-28T15:20:15.972Z,100406.91
2019-04-28T15:25:17.554Z,100406.56
2019-04-28T15:30:19.152Z,100403.59
2019-04-28T15:35:20.883Z,100405.73
2019-04-28T15:40:22.476Z,100401.59
2019-04-28T15:45:24.189Z,100406.78
2019-04-28T15:50:25.808Z,100403.71
2019-04-28T15:55:34.196Z,100413.28
2019-04-28T16:00:35.788Z,100413.67
2019-04-28T16:05:37.354Z,100405.26
2019-04-28T16:10:38.919Z,100406.53
2019-04-28T16:15:40.479Z,100405.12
2019-04-28T16:20:42.049Z,100405.06
2019-04-28T16:25:43.598Z,100404.86
2019-04-28T16:30:45.322Z,100410.00
2019-04-28T16:35:46.917Z,100410.85
2019-04-28T16:40:48.500Z,100413.17
2019-04-28T16:45:50.080Z,100410.59
2019-04-28T16:50:51.793Z,100415.14
2019-04-28T16:56:18.837Z,100426.57
2019-04-28T17:01:30.670Z,100419.30
2019-04-28T17:06:32.344Z,100428.08
2019-04-28T17:11:34.035Z,100431.70
2019-04-28T17:16:35.740Z,100433.87
2019-04-28T17:21:37.412Z,100443.81
2019-04-28T17:26:39.095Z,100443.63
2019-04-28T17:31:40.677Z,100451.73
2019-04-28T17:36:42.346Z,100450.74
2019-04-28T17:41:43.935Z,100454.34
2019-04-28T17:46:45.849Z,100458.97
2019-04-28T17:51:47.515Z,100460.64
2019-04-28T17:56:49.205Z,100465.95
2019-04-28T18:02:09.087Z,100468.42
2019-04-28T18:07:18.961Z,100468.58
2019-04-28T18:12:21.943Z,100480.11
2019-04-28T18:17:38.885Z,100484.58
2019-04-28T18:22:40.678Z,100486.90
2019-04-28T18:27:42.250Z,100495.13
2019-04-28T18:33:09.191Z,100506.33
2019-04-28T18:38:19.145Z,100506.58
2019-04-28T18:43:40.490Z,100514.63
2019-04-28T18:48:42.088Z,100520.05
2019-04-28T18:53:44.644Z,100529.59
2019-04-28T18:58:46.327Z,100537.66
2019-04-28T19:03:47.931Z,100544.23
2019-04-28T19:08:57.553Z,100553.41
2019-04-28T19:14:03.846Z,100559.94
2019-04-28T19:19:07.779Z,100570.14
2019-04-28T19:24:09.355Z,100569.33
2019-04-28T19:29:10.910Z,100572.27
2019-04-28T19:34:12.493Z,100573.72
2019-04-28T19:39:14.181Z,100569.74
2019-04-28T19:44:16.017Z,100564.78
2019-04-28T19:49:17.574Z,100579.57
2019-04-28T19:54:22.123Z,100575.45
2019-04-28T19:59:55.512Z,100582.67
2019-04-28T20:04:57.066Z,100587.57
2019-04-28T20:09:58.622Z,100591.31
2019-04-28T20:15:00.287Z,100596.41
2019-04-28T20:20:01.984Z,100592.25
2019-04-28T20:25:03.929Z,100590.25
2019-04-28T20:30:05.715Z,100591.56
2019-04-28T20:35:07.290Z,100590.21
2019-04-28T20:40:14.545Z,100582.78
2019-04-28T20:45:16.816Z,100583.12
2019-04-28T20:50:18.361Z,100591.70
2019-04-28T20:55:19.922Z,100598.11
2019-04-28T21:00:21.594Z,100598.95
2019-04-28T21:05:23.133Z,100603.84
2019-04-28T21:10:36.882Z,100601.80
2019-04-28T21:15:28.289Z,100602.95
2019-04-28T21:20:29.852Z,100600.91
2019-04-28T21:25:31.447Z,100601.70
2019-04-28T21:30:33.149Z,100601.28
2019-04-28T21:35:34.706Z,100601.41
2019-04-28T21:40:36.770Z,100596.13
2019-04-28T21:46:00.613Z,100598.26
2019-04-28T21:51:02.383Z,100596.13
2019-04-28T21:56:03.935Z,100590.95
2019-04-28T22:01:06.490Z,100600.03
2019-04-28T22:06:08.186Z,100604.05
2019-04-28T22:11:09.803Z,100614.57
2019-04-28T22:16:11.689Z,100613.36
2019-04-28T22:21:13.236Z,100615.27
2019-04-28T22:26:34.453Z,100618.05
2019-04-28T22:31:36.225Z,100620.81
2019-04-28T22:36:37.793Z,100625.71
2019-04-28T22:41:39.385Z,100631.60
2019-04-28T22:46:41.020Z,100632.52
2019-04-28T22:51:42.715Z,100634.23
2019-04-28T22:56:49.802Z,100630.56
2019-04-28T23:01:59.367Z,100636.21
2019-04-28T23:07:01.038Z,100639.78
2019-04-28T23:12:02.909Z,100642.26
2019-04-28T23:17:06.491Z,100645.52
2019-04-28T23:22:46.730Z,100645.11
2019-04-28T23:27:43.136Z,100641.51
2019-04-28T23:32:44.755Z,100642.36
2019-04-28T23:37:46.330Z,100635.91
2019-04-28T23:42:53.531Z,100637.37
2019-04-28T23:47:55.147Z,100635.48
2019-04-28T23:53:03.032Z,100638.89
2019-04-28T23:58:04.732Z,100643.86
